Time;durP1;ratioP1;P1;durP2;ratioP2;P2;SDS_P1;SDS_P2;PMS_P1;PMS_P2;Temp;Humidity;BMP_temperature;BMP_pressure;BME280_temperature;BME280_humidity;BME280_pressure;Samples;Min_cycle;Max_cycle;Signal;HPM_P1;HPM_P2
2022/10/21 00:00:51;;;;;;;9.63;8.80;;;;;;;9.24;100.00;97021.00;5015934;28;20202;-63
2022/10/21 00:03:20;;;;;;;10.03;9.23;;;;;;;9.23;100.00;97011.44;4940050;28;20930;-62
2022/10/21 00:05:49;;;;;;;10.87;9.30;;;;;;;9.27;100.00;97002.16;4984489;28;20257;-63
2022/10/21 00:08:20;;;;;;;10.43;9.53;;;;;;;9.27;100.00;96992.38;4990005;28;20762;-63
2022/10/21 00:10:51;;;;;;;10.87;9.97;;;;;;;9.23;100.00;96991.09;5011045;28;22142;-63
2022/10/21 00:13:21;;;;;;;10.97;9.97;;;;;;;9.23;100.00;96999.03;5015152;28;21132;-60
2022/10/21 00:15:58;;;;;;;10.90;9.80;;;;;;;9.24;100.00;96997.22;5011730;28;20237;-63
2022/10/21 00:18:27;;;;;;;12.20;10.40;;;;;;;9.28;100.00;96998.50;4963109;28;20227;-62
2022/10/21 00:20:55;;;;;;;10.43;9.53;;;;;;;9.31;100.00;96992.84;5010182;28;20800;-62
2022/10/21 00:23:23;;;;;;;11.07;10.07;;;;;;;9.36;100.00;96990.47;4994195;28;20273;-63
2022/10/21 00:25:56;;;;;;;11.40;10.50;;;;;;;9.43;100.00;97006.47;5010009;28;20222;-63
2022/10/21 00:28:26;;;;;;;13.13;10.27;;;;;;;9.46;100.00;97008.75;5015436;28;21593;-62
2022/10/21 00:30:54;;;;;;;11.07;10.00;;;;;;;9.40;100.00;96999.69;4986650;28;20515;-60
2022/10/21 00:33:26;;;;;;;11.43;10.40;;;;;;;9.41;100.00;97003.97;4963622;28;20232;-62
2022/10/21 00:35:56;;;;;;;10.93;10.03;;;;;;;9.42;100.00;97004.81;5005930;28;21059;-62
2022/10/21 00:38:24;;;;;;;10.33;9.43;;;;;;;9.40;100.00;97012.91;5011514;28;20566;-63
2022/10/21 00:40:52;;;;;;;9.67;8.80;;;;;;;9.39;100.00;97026.34;4959097;28;20540;-62
2022/10/21 00:43:20;;;;;;;9.90;9.00;;;;;;;9.31;100.00;97029.06;5013385;28;20434;-62
2022/10/21 00:45:52;;;;;;;10.63;9.67;;;;;;;9.31;100.00;96994.69;5009924;28;20725;-62
2022/10/21 00:48:25;;;;;;;10.13;9.13;;;;;;;9.23;100.00;96979.72;5015435;28;20407;-62
2022/10/21 00:50:55;;;;;;;9.50;8.70;;;;;;;9.10;100.00;96967.97;4962971;28;20452;-62
2022/10/21 00:53:24;;;;;;;9.90;8.93;;;;;;;9.12;100.00;96936.03;5013706;28;20386;-61
2022/10/21 00:55:54;;;;;;;10.10;8.73;;;;;;;9.03;100.00;96937.94;4986582;28;20312;-61
2022/10/21 00:58:25;;;;;;;9.50;8.57;;;;;;;8.98;100.00;96953.50;5016850;28;20205;-60
2022/10/21 01:00:56;;;;;;;9.20;8.50;;;;;;;8.84;100.00;96957.75;5016841;28;20237;-59
2022/10/21 01:03:26;;;;;;;10.37;8.60;;;;;;;8.79;100.00;96958.31;5019100;28;20274;-62
2022/10/21 01:05:55;;;;;;;9.97;8.70;;;;;;;8.76;100.00;96955.19;4970100;28;20468;-62
2022/10/21 01:08:23;;;;;;;9.57;8.87;;;;;;;8.77;100.00;96948.91;5018356;28;20676;-62
2022/10/21 01:10:52;;;;;;;9.40;8.63;;;;;;;8.76;100.00;96949.91;4990980;28;20401;-62
2022/10/21 01:13:27;;;;;;;9.87;8.87;;;;;;;8.75;100.00;96937.69;5017907;28;20238;-60
2022/10/21 01:16:03;;;;;;;9.80;9.07;;;;;;;8.67;100.00;96959.72;5014862;28;20438;-61
2022/10/21 01:18:38;;;;;;;9.30;8.60;;;;;;;8.64;100.00;96947.69;5017750;28;20214;-61
2022/10/21 01:21:24;;;;;;;10.20;9.30;;;;;;;8.59;100.00;96957.97;4972326;28;20714;-63
2022/10/21 01:24:09;;;;;;;9.70;8.90;;;;;;;8.54;100.00;96955.84;5015334;28;20847;-62
2022/10/21 01:27:01;;;;;;;9.50;8.70;;;;;;;8.57;100.00;96952.06;4991320;28;20226;-62
2022/10/21 01:30:05;;;;;;;9.67;8.97;;;;;;;8.57;100.00;96944.13;5006018;28;20512;-63
2022/10/21 01:32:59;;;;;;;9.93;9.00;;;;;;;8.64;100.00;96936.31;5016878;28;20685;-63
2022/10/21 01:35:34;;;;;;;9.77;9.03;;;;;;;8.59;100.00;96939.50;5013384;28;20222;-62
2022/10/21 01:38:08;;;;;;;10.60;9.70;;;;;;;8.63;100.00;96937.31;4966878;28;22322;-62
2022/10/21 01:40:43;;;;;;;10.50;9.60;;;;;;;8.66;100.00;96935.13;5008160;28;20214;-63
2022/10/21 01:43:18;;;;;;;10.60;9.60;;;;;;;8.62;100.00;96927.75;5013567;28;20216;-66
2022/10/21 01:45:48;;;;;;;10.50;9.60;;;;;;;8.61;100.00;96948.06;5013016;28;21784;-62
2022/10/21 01:48:20;;;;;;;10.93;9.80;;;;;;;8.60;100.00;96933.22;5016817;28;20203;-62
2022/10/21 01:50:52;;;;;;;10.40;9.60;;;;;;;8.60;100.00;96949.06;4966177;28;21953;-62
2022/10/21 01:53:22;;;;;;;9.83;8.93;;;;;;;8.52;100.00;96947.28;5017018;28;20226;-62
2022/10/21 01:55:51;;;;;;;10.77;9.87;;;;;;;8.35;100.00;96946.56;4989164;28;20235;-62
2022/10/21 01:58:21;;;;;;;10.40;9.50;;;;;;;8.23;100.00;96953.25;4988357;28;20306;-61
2022/10/21 02:00:50;;;;;;;11.23;9.43;;;;;;;8.16;100.00;96976.88;5012064;28;20436;-63
2022/10/21 02:03:22;;;;;;;11.13;9.77;;;;;;;8.19;100.00;96984.44;5015351;28;20342;-60
2022/10/21 02:05:50;;;;;;;9.67;8.87;;;;;;;8.02;100.00;96993.44;5011824;28;20489;-61
2022/10/21 02:08:18;;;;;;;10.57;9.77;;;;;;;7.96;100.00;96997.56;4969407;28;20215;-62
2022/10/21 02:10:49;;;;;;;10.97;10.03;;;;;;;7.83;100.00;96992.84;4989134;28;21111;-62
2022/10/21 02:13:42;;;;;;;10.97;9.87;;;;;;;7.76;100.00;96979.50;5016746;28;20218;-61
2022/10/21 02:16:13;;;;;;;13.27;10.50;;;;;;;7.68;100.00;96975.13;5002559;28;22053;-61
2022/10/21 02:18:43;;;;;;;10.77;9.73;;;;;;;7.61;100.00;96966.25;5012252;28;20203;-62
2022/10/21 02:21:14;;;;;;;11.57;10.47;;;;;;;7.60;100.00;96961.13;5016494;28;20688;-62
2022/10/21 02:23:49;;;;;;;10.83;9.93;;;;;;;7.53;100.00;96969.72;4966055;28;20519;-62
2022/10/21 02:26:17;;;;;;;11.10;10.20;;;;;;;7.51;100.00;96963.81;5016987;28;20749;-62
2022/10/21 02:28:46;;;;;;;11.30;10.40;;;;;;;7.49;100.00;96947.34;4994350;28;20221;-62
2022/10/21 02:31:24;;;;;;;12.93;10.83;;;;;;;7.56;100.00;96936.09;5015574;28;20709;-59
2022/10/21 02:34:02;;;;;;;12.07;11.03;;;;;;;7.57;100.00;96946.47;5013191;28;21061;-63
2022/10/21 02:36:38;;;;;;;12.77;11.67;;;;;;;7.55;100.00;96947.63;5012094;28;20230;-62
2022/10/21 02:39:09;;;;;;;12.97;10.93;;;;;;;7.58;100.00;96960.47;4970247;28;20241;-63
2022/10/21 02:41:39;;;;;;;12.97;11.63;;;;;;;7.53;100.00;96961.81;4981987;28;20584;-61
2022/10/21 02:44:07;;;;;;;12.83;11.73;;;;;;;7.52;100.00;96954.91;5014818;28;20653;-61
2022/10/21 02:46:37;;;;;;;13.03;11.90;;;;;;;7.53;100.00;96951.25;5012379;28;20231;-62
2022/10/21 02:49:07;;;;;;;13.40;12.23;;;;;;;7.62;100.00;96953.88;5012987;28;20201;-61
2022/10/21 02:51:35;;;;;;;15.07;13.43;;;;;;;7.71;100.00;96944.13;5012364;28;20237;-60
2022/10/21 02:54:04;;;;;;;15.33;13.77;;;;;;;7.77;100.00;96938.16;4968133;28;20222;-64
2022/10/21 02:56:33;;;;;;;15.20;13.80;;;;;;;7.78;100.00;96943.25;4989867;28;20222;-61
2022/10/21 02:59:01;;;;;;;15.77;14.33;;;;;;;7.77;100.00;96949.53;5014421;28;20213;-59
2022/10/21 03:01:29;;;;;;;15.33;13.93;;;;;;;7.80;100.00;96946.56;5012106;28;20616;-63
2022/10/21 03:03:57;;;;;;;14.03;12.83;;;;;;;7.88;100.00;96952.78;5014355;28;20288;-62
2022/10/21 03:06:27;;;;;;;14.20;13.00;;;;;;;7.89;100.00;96949.16;5001434;28;20238;-61
2022/10/21 03:08:55;;;;;;;14.60;13.20;;;;;;;7.93;100.00;96959.16;5013244;28;20195;-65
2022/10/21 03:11:23;;;;;;;16.27;14.83;;;;;;;7.95;100.00;96949.28;4965015;28;20217;-61
2022/10/21 03:13:51;;;;;;;15.87;14.17;;;;;;;7.92;100.00;96948.78;4949026;28;20815;-62
2022/10/21 03:16:20;;;;;;;15.83;14.30;;;;;;;7.94;100.00;96944.97;5010316;28;20227;-64
2022/10/21 03:18:48;;;;;;;15.00;13.70;;;;;;;7.96;100.00;96939.53;4988212;28;20686;-61
2022/10/21 03:21:16;;;;;;;15.33;13.60;;;;;;;7.92;100.00;96939.06;4982139;28;20554;-64
2022/10/21 03:23:45;;;;;;;14.50;13.10;;;;;;;8.00;100.00;96947.94;5011938;28;20207;-59
2022/10/21 03:26:14;;;;;;;15.20;13.63;;;;;;;7.92;100.00;96946.97;4963712;28;20528;-63
2022/10/21 03:28:42;;;;;;;15.13;13.07;;;;;;;7.92;100.00;96935.59;4991324;28;20222;-64
2022/10/21 03:31:10;;;;;;;14.50;13.20;;;;;;;7.94;100.00;96941.53;4987695;28;20216;-63
2022/10/21 03:33:38;;;;;;;15.20;13.60;;;;;;;7.91;100.00;96941.88;5013352;28;20290;-63
2022/10/21 03:36:07;;;;;;;14.00;12.77;;;;;;;7.92;100.00;96933.78;4973658;28;22252;-63
2022/10/21 03:38:36;;;;;;;16.07;14.50;;;;;;;7.93;100.00;96931.97;5008610;28;20209;-63
2022/10/21 03:41:05;;;;;;;14.00;12.70;;;;;;;7.98;100.00;96932.28;4979612;28;20221;-61
2022/10/21 03:43:33;;;;;;;15.50;13.87;;;;;;;8.00;100.00;96947.94;4986164;28;20679;-62
2022/10/21 03:46:02;;;;;;;14.77;13.57;;;;;;;8.05;100.00;96951.69;4993458;28;20223;-63
2022/10/21 03:48:30;;;;;;;14.40;13.17;;;;;;;8.09;100.00;96952.16;5012280;28;20210;-63
2022/10/21 03:50:58;;;;;;;14.30;13.00;;;;;;;8.18;100.00;96951.13;4992009;28;20207;-63
2022/10/21 03:53:26;;;;;;;15.50;13.57;;;;;;;8.24;100.00;96949.59;5011543;28;20414;-64
2022/10/21 03:56:11;;;;;;;14.50;13.00;;;;;;;8.21;100.00;96934.94;4966184;28;20231;-64
2022/10/21 03:58:39;;;;;;;14.60;13.37;;;;;;;8.21;100.00;96934.94;4987141;28;20463;-63
2022/10/21 04:01:11;;;;;;;15.60;12.87;;;;;;;8.16;100.00;96924.09;4994655;28;20203;-61
2022/10/21 04:03:40;;;;;;;14.57;13.10;;;;;;;8.11;100.00;96914.03;5011800;28;20504;-63
2022/10/21 04:06:08;;;;;;;13.03;11.97;;;;;;;8.16;100.00;96908.25;5013234;28;20807;-63
2022/10/21 04:08:36;;;;;;;13.37;12.17;;;;;;;8.22;100.00;96909.38;5013203;28;20440;-61
2022/10/21 04:11:05;;;;;;;14.40;12.53;;;;;;;8.17;100.00;96917.00;4964347;28;20211;-60
2022/10/21 04:13:35;;;;;;;13.37;12.07;;;;;;;8.11;100.00;96914.03;4997496;28;20312;-64
2022/10/21 04:16:05;;;;;;;14.43;12.93;;;;;;;8.15;100.00;96903.16;4990322;28;20226;-62
2022/10/21 04:18:33;;;;;;;14.50;13.00;;;;;;;8.14;100.00;96912.03;5016104;28;20198;-62
2022/10/21 04:21:01;;;;;;;14.33;13.13;;;;;;;8.16;100.00;96904.81;4992297;28;20244;-62
2022/10/21 04:23:29;;;;;;;13.83;12.47;;;;;;;8.22;100.00;96907.53;5013866;28;20920;-62
2022/10/21 04:25:57;;;;;;;14.10;12.60;;;;;;;8.21;100.00;96897.97;5015577;28;20214;-62
2022/10/21 04:28:25;;;;;;;15.17;13.77;;;;;;;8.26;100.00;96906.19;4979000;28;20700;-61
2022/10/21 04:30:55;;;;;;;13.73;12.47;;;;;;;8.29;100.00;96885.72;4989880;28;21306;-63
2022/10/21 04:33:23;;;;;;;12.83;11.73;;;;;;;8.29;100.00;96881.28;5012541;28;20207;-63
2022/10/21 04:35:53;;;;;;;13.60;12.27;;;;;;;8.30;100.00;96895.28;5016090;28;20234;-63
2022/10/21 04:38:21;;;;;;;13.60;12.40;;;;;;;8.35;100.00;96879.75;5012866;28;20219;-63
2022/10/21 04:40:55;;;;;;;13.10;11.80;;;;;;;8.28;100.00;96890.19;5014825;28;21031;-63
2022/10/21 04:43:23;;;;;;;13.40;12.07;;;;;;;8.31;100.00;96876.63;4978634;28;20218;-63
2022/10/21 04:45:52;;;;;;;12.00;10.90;;;;;;;8.25;100.00;96866.78;4989040;28;20901;-63
2022/10/21 04:48:22;;;;;;;12.87;11.67;;;;;;;8.17;100.00;96859.75;5012552;28;20199;-63
2022/10/21 04:50:50;;;;;;;12.60;11.50;;;;;;;8.11;100.00;96860.47;5010871;28;20202;-63
2022/10/21 04:53:19;;;;;;;13.43;12.13;;;;;;;8.11;100.00;96878.94;5015047;28;20209;-61
2022/10/21 04:55:51;;;;;;;13.20;11.93;;;;;;;8.14;100.00;96875.94;4998586;28;20287;-61
2022/10/21 04:58:19;;;;;;;12.57;11.57;;;;;;;8.21;100.00;96860.22;4952643;28;20206;-62
2022/10/21 05:00:49;;;;;;;14.53;12.33;;;;;;;8.24;100.00;96855.41;5010793;28;20568;-63
2022/10/21 05:03:17;;;;;;;13.10;11.80;;;;;;;8.25;100.00;96846.47;5015309;28;20490;-63
2022/10/21 05:05:48;;;;;;;12.73;11.50;;;;;;;8.29;100.00;96841.69;5007687;28;20230;-63
2022/10/21 05:08:17;;;;;;;11.10;10.17;;;;;;;8.26;100.00;96842.84;5014528;28;20546;-63
2022/10/21 05:10:45;;;;;;;11.63;10.53;;;;;;;8.19;100.00;96836.63;5009215;28;20796;-61
2022/10/21 05:13:13;;;;;;;11.63;10.73;;;;;;;8.15;100.00;96834.56;5013307;28;20211;-62
2022/10/21 05:15:41;;;;;;;11.43;10.27;;;;;;;8.08;100.00;96824.69;4933337;28;20505;-60
2022/10/21 05:18:09;;;;;;;11.20;10.33;;;;;;;8.06;100.00;96821.41;5012902;28;20210;-63
2022/10/21 05:20:37;;;;;;;10.93;9.90;;;;;;;8.06;100.00;96826.66;5009333;28;20500;-63
2022/10/21 05:23:07;;;;;;;12.97;11.73;;;;;;;8.02;100.00;96816.66;5014581;28;21043;-61
2022/10/21 05:25:35;;;;;;;11.13;10.10;;;;;;;7.92;100.00;96801.88;5010058;28;20272;-63
2022/10/21 05:28:03;;;;;;;12.43;11.23;;;;;;;7.93;100.00;96794.78;5015290;28;20207;-64
2022/10/21 05:30:31;;;;;;;11.00;10.07;;;;;;;7.86;100.00;96796.50;4961346;28;20400;-62
2022/10/21 05:33:00;;;;;;;12.83;11.73;;;;;;;7.84;100.00;96804.56;5011836;28;20983;-63
2022/10/21 05:35:28;;;;;;;12.33;11.27;;;;;;;7.85;100.00;96787.75;5008900;28;20428;-63
2022/10/21 05:37:56;;;;;;;12.03;10.87;;;;;;;7.86;100.00;96767.50;5015133;28;20202;-61
2022/10/21 05:40:26;;;;;;;11.23;10.23;;;;;;;7.85;100.00;96779.03;5008725;28;20199;-62
2022/10/21 05:42:54;;;;;;;12.57;11.50;;;;;;;7.86;100.00;96780.69;5010274;28;20203;-62
2022/10/21 05:45:22;;;;;;;11.73;10.73;;;;;;;7.90;100.00;96784.59;4961270;28;20206;-62
2022/10/21 05:47:50;;;;;;;11.83;10.93;;;;;;;7.90;100.00;96779.31;5015208;28;20576;-61
2022/10/21 05:50:19;;;;;;;12.50;11.50;;;;;;;7.97;100.00;96789.00;5014907;28;20207;-62
2022/10/21 05:52:47;;;;;;;11.97;10.97;;;;;;;8.04;100.00;96789.09;5015471;28;20199;-64
2022/10/21 05:55:15;;;;;;;11.63;10.63;;;;;;;8.17;100.00;96795.59;5013482;28;20227;-63
2022/10/21 05:57:44;;;;;;;12.30;11.10;;;;;;;8.31;100.00;96800.09;5014177;28;20861;-62
2022/10/21 06:00:13;;;;;;;11.67;10.63;;;;;;;8.36;100.00;96804.84;4971222;28;20229;-62
2022/10/21 06:02:41;;;;;;;14.03;12.73;;;;;;;8.40;100.00;96820.13;5014079;28;20443;-62
2022/10/21 06:05:09;;;;;;;13.27;11.83;;;;;;;8.42;100.00;96819.97;5015981;28;20203;-64
2022/10/21 06:07:37;;;;;;;13.17;11.87;;;;;;;8.46;100.00;96804.56;5012578;28;20406;-62
2022/10/21 06:10:07;;;;;;;14.50;11.47;;;;;;;8.48;100.00;96798.13;5015253;28;20223;-61
2022/10/21 06:12:35;;;;;;;12.87;11.13;;;;;;;8.51;100.00;96791.66;5013793;28;20510;-63
2022/10/21 06:15:06;;;;;;;11.27;10.23;;;;;;;8.56;100.00;96799.91;5016039;28;20586;-63
2022/10/21 06:17:37;;;;;;;12.10;11.00;;;;;;;8.58;100.00;96805.81;4981948;28;20230;-63
2022/10/21 06:20:06;;;;;;;12.10;10.90;;;;;;;8.61;100.00;96808.09;5017527;28;20740;-62
2022/10/21 06:22:34;;;;;;;14.10;10.90;;;;;;;8.69;100.00;96800.06;5014568;28;20533;-64
2022/10/21 06:25:03;;;;;;;12.13;10.97;;;;;;;8.75;100.00;96797.72;5016360;28;20598;-63
2022/10/21 06:27:31;;;;;;;11.43;10.43;;;;;;;8.82;100.00;96795.97;5011969;28;20648;-63
2022/10/21 06:29:59;;;;;;;11.87;10.97;;;;;;;8.93;100.00;96790.25;5014647;28;20428;-62
2022/10/21 06:32:29;;;;;;;11.73;10.57;;;;;;;9.00;100.00;96790.31;4955429;28;20666;-59
2022/10/21 06:34:57;;;;;;;13.70;10.47;;;;;;;9.00;100.00;96792.97;5011425;28;20207;-63
2022/10/21 06:37:25;;;;;;;11.47;10.20;;;;;;;9.01;100.00;96791.16;5013254;28;20227;-63
2022/10/21 06:39:53;;;;;;;12.13;10.93;;;;;;;9.06;100.00;96797.50;5017825;28;20199;-63
2022/10/21 06:42:21;;;;;;;12.03;10.90;;;;;;;9.18;100.00;96803.16;5012684;28;20581;-63
2022/10/21 06:44:49;;;;;;;12.03;10.87;;;;;;;9.29;100.00;96796.56;5018173;28;20440;-66
2022/10/21 06:47:17;;;;;;;12.47;11.27;;;;;;;9.41;100.00;96794.28;4963992;28;20227;-63
2022/10/21 06:49:47;;;;;;;13.30;11.97;;;;;;;9.23;100.00;96806.06;5013858;28;20203;-63
2022/10/21 06:52:15;;;;;;;11.10;9.97;;;;;;;9.17;100.00;96816.56;5014670;28;20211;-63
2022/10/21 06:54:43;;;;;;;11.00;10.10;;;;;;;9.32;100.00;96814.72;5014332;28;20405;-63
2022/10/21 06:57:12;;;;;;;11.50;10.60;;;;;;;9.34;100.00;96812.69;5013584;28;20411;-62
2022/10/21 06:59:40;;;;;;;11.77;9.37;;;;;;;9.42;100.00;96817.06;5012984;28;20399;-61
2022/10/21 07:02:09;;;;;;;10.97;9.90;;;;;;;9.46;100.00;96817.50;4967856;28;20222;-62
2022/10/21 07:04:37;;;;;;;12.23;10.03;;;;;;;9.54;100.00;96806.84;5012883;28;20211;-63
2022/10/21 07:07:07;;;;;;;11.83;10.43;;;;;;;9.63;100.00;96813.63;5016639;28;20223;-63
2022/10/21 07:09:35;;;;;;;15.70;13.13;;;;;;;9.65;100.00;96811.63;4983362;28;20925;-62
2022/10/21 07:12:03;;;;;;;14.07;12.93;;;;;;;9.71;100.00;96810.06;5015064;28;20722;-61
2022/10/21 07:14:32;;;;;;;12.70;11.43;;;;;;;9.81;100.00;96802.63;5009147;28;21052;-60
2022/10/21 07:17:00;;;;;;;12.80;11.53;;;;;;;9.96;100.00;96807.88;5016235;28;20226;-64
2022/10/21 07:19:28;;;;;;;13.73;10.60;;;;;;;9.94;100.00;96817.00;4961976;28;20900;-62
2022/10/21 07:21:56;;;;;;;11.47;10.47;;;;;;;9.95;100.00;96815.97;4976597;28;20206;-61
2022/10/21 07:24:26;;;;;;;11.10;10.00;;;;;;;9.99;100.00;96804.00;5012294;28;20199;-62
2022/10/21 07:26:54;;;;;;;12.20;10.87;;;;;;;10.01;100.00;96803.84;4998954;28;21070;-60
2022/10/21 07:29:22;;;;;;;11.53;10.53;;;;;;;10.11;100.00;96807.81;5012033;28;20378;-60
2022/10/21 07:31:50;;;;;;;11.90;10.87;;;;;;;10.27;100.00;96803.25;4974645;28;20765;-63
2022/10/21 07:34:19;;;;;;;12.43;11.33;;;;;;;10.53;100.00;96800.00;4955597;28;20415;-63
2022/10/21 07:36:51;;;;;;;10.77;9.67;;;;;;;10.64;100.00;96782.75;5011571;28;20222;-62
2022/10/21 07:39:21;;;;;;;12.87;10.37;;;;;;;10.66;100.00;96770.13;5011292;28;20203;-62
2022/10/21 07:41:52;;;;;;;10.50;9.40;;;;;;;10.61;100.00;96774.41;5012516;28;20206;-62
2022/10/21 07:44:23;;;;;;;10.10;9.13;;;;;;;10.55;100.00;96775.97;5010597;28;20851;-62
2022/10/21 07:46:51;;;;;;;9.97;9.10;;;;;;;10.66;100.00;96775.44;5013338;28;20752;-62
2022/10/21 07:49:21;;;;;;;10.77;9.83;;;;;;;10.66;100.00;96769.31;4962754;28;20454;-63
2022/10/21 07:51:50;;;;;;;10.87;9.60;;;;;;;10.56;100.00;96775.78;5012566;28;20297;-63
2022/10/21 07:54:18;;;;;;;9.77;8.87;;;;;;;10.62;100.00;96763.59;5011594;28;20518;-62
2022/10/21 07:56:49;;;;;;;10.77;9.83;;;;;;;10.63;100.00;96751.97;5014285;28;20230;-63
2022/10/21 07:59:20;;;;;;;11.53;10.30;;;;;;;10.49;100.00;96763.50;5011095;28;20540;-63
2022/10/21 08:01:48;;;;;;;12.13;10.23;;;;;;;10.50;100.00;96763.31;5012905;28;20206;-63
2022/10/21 08:04:18;;;;;;;11.43;10.53;;;;;;;10.59;100.00;96765.78;4964249;28;20618;-66
2022/10/21 08:06:47;;;;;;;11.30;10.27;;;;;;;11.12;100.00;96754.66;5011758;28;20943;-63
2022/10/21 08:09:16;;;;;;;10.60;9.80;;;;;;;11.38;100.00;96732.72;4988796;28;20238;-62
2022/10/21 08:11:44;;;;;;;10.53;9.37;;;;;;;11.86;100.00;96729.13;5010634;28;20570;-61
2022/10/21 08:14:13;;;;;;;10.77;9.87;;;;;;;12.22;100.00;96727.13;5011612;28;20610;-59
2022/10/21 08:16:42;;;;;;;10.93;9.67;;;;;;;12.30;100.00;96726.06;5011986;28;20261;-63
2022/10/21 08:19:18;;;;;;;9.90;9.13;;;;;;;12.37;100.00;96708.31;4991864;28;20202;-61
2022/10/21 08:21:47;;;;;;;10.03;9.07;;;;;;;12.45;100.00;96720.53;5011565;28;20292;-61
2022/10/21 08:24:15;;;;;;;9.90;9.10;;;;;;;12.40;100.00;96721.16;5012599;28;20213;-63
2022/10/21 08:26:43;;;;;;;11.63;9.57;;;;;;;12.42;100.00;96727.09;5016031;28;20241;-62
2022/10/21 08:29:11;;;;;;;11.33;9.33;;;;;;;12.52;100.00;96733.81;5012433;28;20713;-63
2022/10/21 08:31:40;;;;;;;10.50;9.67;;;;;;;12.31;100.00;96735.66;4986000;28;20443;-63
2022/10/21 08:34:13;;;;;;;9.60;8.70;;;;;;;12.56;100.00;96733.19;4997123;28;20203;-61
2022/10/21 08:36:41;;;;;;;9.77;8.90;;;;;;;12.47;100.00;96739.75;4999194;28;20246;-61
2022/10/21 08:39:10;;;;;;;12.10;10.90;;;;;;;12.30;100.00;96734.88;5013026;28;20206;-62
2022/10/21 08:42:06;;;;;;;16.83;11.37;;;;;;;12.63;100.00;96746.44;5006503;28;20969;-62
2022/10/21 08:44:47;;;;;;;12.53;11.20;;;;;;;12.59;100.00;96740.75;4988733;28;20211;-66
2022/10/21 08:47:20;;;;;;;10.70;9.67;;;;;;;12.59;100.00;96743.41;5012673;28;20222;-64
2022/10/21 08:50:00;;;;;;;10.13;9.13;;;;;;;12.73;100.00;96743.38;5013022;28;20332;-65
2022/10/21 08:52:42;;;;;;;10.90;9.90;;;;;;;12.56;100.00;96737.69;4973227;28;20444;-59
2022/10/21 08:55:17;;;;;;;9.97;9.17;;;;;;;12.81;100.00;96742.34;5014519;28;20201;-62
2022/10/21 08:57:46;;;;;;;9.90;8.87;;;;;;;13.01;100.00;96734.28;5013027;28;20269;-62
2022/10/21 09:00:17;;;;;;;10.50;9.60;;;;;;;13.07;100.00;96743.25;5008991;28;20849;-61
2022/10/21 09:03:10;;;;;;;10.73;9.83;;;;;;;13.45;100.00;96747.84;5014511;28;20739;-61
2022/10/21 09:05:53;;;;;;;11.37;9.37;;;;;;;13.33;98.05;96745.00;5009487;28;20609;-60
2022/10/21 09:08:25;;;;;;;10.67;9.83;;;;;;;13.13;100.00;96755.72;4962530;28;20433;-65
2022/10/21 09:11:01;;;;;;;11.13;10.10;;;;;;;13.32;100.00;96752.16;5012849;28;20203;-62
2022/10/21 09:13:42;;;;;;;9.90;9.00;;;;;;;13.77;95.83;96731.88;5011251;28;20202;-62
2022/10/21 09:16:14;;;;;;;10.43;9.27;;;;;;;13.64;96.11;96734.63;5011666;28;20249;-62
2022/10/21 09:18:51;;;;;;;10.93;9.93;;;;;;;13.80;94.06;96736.75;5014014;28;20227;-61
2022/10/21 09:21:25;;;;;;;10.27;9.37;;;;;;;13.74;93.95;96724.31;5012823;28;20213;-62
2022/10/21 09:24:00;;;;;;;10.70;9.53;;;;;;;13.93;94.13;96724.41;4971179;28;20218;-62
2022/10/21 09:26:37;;;;;;;10.83;9.73;;;;;;;13.70;95.00;96726.59;5013147;28;20420;-62
2022/10/21 09:29:26;;;;;;;10.47;9.43;;;;;;;13.85;93.99;96725.47;5015709;28;20476;-61
2022/10/21 09:31:56;;;;;;;10.50;9.07;;;;;;;13.96;91.80;96722.09;5017541;28;20202;-62
2022/10/21 09:34:44;;;;;;;10.17;9.17;;;;;;;14.19;91.15;96726.03;5013765;28;20390;-62
2022/10/21 09:37:25;;;;;;;10.37;9.47;;;;;;;13.99;89.64;96731.50;4985117;28;20241;-59
2022/10/21 09:40:00;;;;;;;10.20;9.00;;;;;;;13.95;89.15;96738.31;5016205;28;20319;-63
2022/10/21 09:42:28;;;;;;;10.73;8.83;;;;;;;13.93;89.19;96743.84;5011050;28;20709;-60
2022/10/21 09:45:20;;;;;;;10.03;9.20;;;;;;;13.84;90.39;96759.28;5013080;28;20275;-63
2022/10/21 09:47:53;;;;;;;10.53;9.67;;;;;;;13.83;91.76;96767.47;5015913;28;20217;-63
2022/10/21 09:50:21;;;;;;;10.10;9.23;;;;;;;13.82;92.42;96777.28;5011911;28;20214;-61
2022/10/21 09:52:57;;;;;;;10.10;9.10;;;;;;;13.85;91.00;96778.72;5015349;28;20405;-63
2022/10/21 09:55:26;;;;;;;11.00;9.27;;;;;;;13.84;93.56;96795.72;4965322;28;20324;-62
2022/10/21 09:57:57;;;;;;;11.27;10.17;;;;;;;13.76;92.75;96783.47;5014802;28;20230;-64
2022/10/21 10:00:42;;;;;;;10.80;9.80;;;;;;;13.72;94.11;96777.78;5011425;28;22131;-62
2022/10/21 10:03:10;;;;;;;10.63;9.63;;;;;;;13.65;96.17;96786.84;5016231;28;20203;-63
2022/10/21 10:05:42;;;;;;;10.33;9.43;;;;;;;13.40;98.51;96800.84;5014928;28;20199;-61
2022/10/21 10:08:33;;;;;;;10.57;9.63;;;;;;;13.25;100.00;96793.09;4989760;28;20559;-60
2022/10/21 10:11:26;;;;;;;10.53;9.73;;;;;;;13.24;100.00;96796.78;5014652;28;21023;-62
2022/10/21 10:13:54;;;;;;;10.13;8.80;;;;;;;13.01;100.00;96779.50;4975730;28;20215;-62
2022/10/21 10:16:26;;;;;;;9.63;8.83;;;;;;;13.04;100.00;96784.41;5013320;28;20233;-62
2022/10/21 10:19:11;;;;;;;9.97;9.17;;;;;;;12.99;100.00;96785.00;5016418;28;20437;-61
2022/10/21 10:21:39;;;;;;;9.83;9.03;;;;;;;13.18;100.00;96790.50;5013547;28;20213;-63
2022/10/21 10:24:19;;;;;;;11.97;10.77;;;;;;;13.06;100.00;96781.50;4997849;28;20621;-63
2022/10/21 10:26:48;;;;;;;11.40;10.40;;;;;;;12.92;100.00;96783.44;5013927;28;20876;-61
2022/10/21 10:29:24;;;;;;;11.73;10.40;;;;;;;12.99;100.00;96782.34;5012506;28;20628;-61
2022/10/21 10:31:55;;;;;;;13.50;12.27;;;;;;;13.19;100.00;96784.16;5016746;28;20876;-61
2022/10/21 10:34:27;;;;;;;12.37;11.40;;;;;;;13.46;100.00;96784.06;5012815;28;20213;-62
2022/10/21 10:37:01;;;;;;;11.43;10.53;;;;;;;13.55;100.00;96789.94;5015333;28;20898;-61
2022/10/21 10:39:34;;;;;;;10.03;9.20;;;;;;;13.71;100.00;96791.28;5015270;28;20391;-64
2022/10/21 10:42:03;;;;;;;9.30;8.43;;;;;;;13.90;100.00;96797.53;4965208;28;20277;-62
2022/10/21 10:44:34;;;;;;;9.80;9.07;;;;;;;13.74;100.00;96794.34;5011754;28;20316;-60
2022/10/21 10:47:04;;;;;;;10.37;9.50;;;;;;;13.95;100.00;96784.38;4989368;28;20450;-62
2022/10/21 10:49:37;;;;;;;10.27;9.37;;;;;;;13.97;100.00;96786.84;5013512;28;20195;-61
2022/10/21 10:52:21;;;;;;;11.13;10.27;;;;;;;13.93;100.00;96778.47;5012728;28;20215;-62
2022/10/21 10:55:14;;;;;;;10.90;10.03;;;;;;;13.82;100.00;96771.16;5015396;28;20206;-62
2022/10/21 10:57:46;;;;;;;10.30;9.43;;;;;;;14.16;100.00;96772.56;4937365;28;21929;-63
2022/10/21 11:00:40;;;;;;;10.77;9.73;;;;;;;14.01;100.00;96790.72;4985486;28;20207;-63
2022/10/21 11:03:13;;;;;;;10.43;9.43;;;;;;;14.08;100.00;96788.81;4990851;28;20452;-65
2022/10/21 11:05:44;;;;;;;11.30;10.17;;;;;;;13.78;100.00;96784.09;4940741;28;20218;-64
2022/10/21 11:08:15;;;;;;;11.03;9.93;;;;;;;13.88;100.00;96791.59;5015534;28;20203;-62
2022/10/21 11:10:47;;;;;;;11.23;10.43;;;;;;;13.67;100.00;96787.44;4996576;28;20218;-61
2022/10/21 11:13:16;;;;;;;9.73;8.93;;;;;;;13.96;100.00;96771.91;4962029;28;20218;-62
2022/10/21 11:15:56;;;;;;;10.33;9.47;;;;;;;14.35;99.63;96767.28;4955784;28;20215;-63
2022/10/21 11:18:29;;;;;;;10.50;9.60;;;;;;;14.46;96.81;96768.44;4983777;28;21268;-63
2022/10/21 11:21:15;;;;;;;9.20;8.50;;;;;;;14.54;98.63;96760.16;4989339;28;20219;-65
2022/10/21 11:24:02;;;;;;;11.53;9.97;;;;;;;14.36;95.09;96741.44;5015766;28;21562;-61
2022/10/21 11:26:40;;;;;;;8.97;8.27;;;;;;;14.32;96.83;96751.75;4994987;28;20257;-62
2022/10/21 11:29:20;;;;;;;8.77;8.07;;;;;;;14.32;97.41;96749.06;4965511;28;20929;-63
2022/10/21 11:31:53;;;;;;;9.97;9.17;;;;;;;14.43;100.00;96745.69;4987248;28;20211;-61
2022/10/21 11:34:45;;;;;;;9.93;9.13;;;;;;;14.12;100.00;96736.72;4987759;28;20713;-62
2022/10/21 11:37:19;;;;;;;9.23;8.30;;;;;;;14.15;100.00;96730.16;4931111;28;20230;-61
2022/10/21 11:39:52;;;;;;;9.10;8.20;;;;;;;14.53;100.00;96726.53;4985485;28;21106;-62